createdAt,value
2023-03-26T00:02:24.198Z,38.33
2023-03-26T00:04:53.348Z,37.82
2023-03-26T00:07:22.744Z,38.08
2023-03-26T00:09:50.736Z,37.90
2023-03-26T00:12:20.012Z,37.58
2023-03-26T00:14:52.780Z,37.38
2023-03-26T00:17:21.357Z,37.02
2023-03-26T00:19:53.698Z,36.18
2023-03-26T00:22:23.715Z,36.79
2023-03-26T00:24:52.238Z,37.18
2023-03-26T00:27:20.640Z,37.63
2023-03-26T00:29:49.792Z,37.13
2023-03-26T00:32:17.841Z,37.11
2023-03-26T00:34:46.339Z,37.61
2023-03-26T00:37:15.205Z,37.15
2023-03-26T00:39:49.290Z,37.23
2023-03-26T00:42:17.382Z,37.20
2023-03-26T00:44:45.738Z,36.60
2023-03-26T00:47:14.608Z,36.92
2023-03-26T00:49:42.794Z,36.97
2023-03-26T00:52:10.875Z,37.13
2023-03-26T00:54:39.048Z,37.44
2023-03-26T00:57:16.365Z,35.98
2023-03-26T00:59:51.407Z,35.96
2023-03-26T01:02:20.989Z,36.34
2023-03-26T01:04:56.755Z,35.83
2023-03-26T01:07:29.013Z,36.05
2023-03-26T01:09:59.736Z,36.74
2023-03-26T01:12:32.081Z,37.15
2023-03-26T01:15:01.034Z,38.24
2023-03-26T01:17:34.408Z,38.10
2023-03-26T01:20:15.831Z,37.75
2023-03-26T01:22:49.620Z,37.83
2023-03-26T01:25:18.167Z,37.37
2023-03-26T01:27:50.629Z,37.59
2023-03-26T01:30:27.683Z,37.14
2023-03-26T01:33:14.531Z,36.66
2023-03-26T01:36:02.600Z,36.65
2023-03-26T01:38:52.340Z,35.28
2023-03-26T01:41:24.744Z,35.58
2023-03-26T01:44:16.966Z,35.46
2023-03-26T01:46:45.850Z,36.24
2023-03-26T01:49:13.916Z,36.31
2023-03-26T01:51:42.247Z,35.91
2023-03-26T01:54:31.240Z,36.25
2023-03-26T01:57:10.773Z,36.92
2023-03-26T01:59:45.891Z,37.44
2023-03-26T02:02:15.731Z,36.97
2023-03-26T02:05:10.994Z,36.83
2023-03-26T02:08:12.454Z,36.39
2023-03-26T02:10:44.297Z,36.05
2023-03-26T02:13:16.176Z,35.39
2023-03-26T02:16:01.200Z,35.13
2023-03-26T02:18:39.016Z,34.69
2023-03-26T02:21:15.578Z,34.67
2023-03-26T02:23:47.269Z,34.81
2023-03-26T02:26:16.641Z,35.03
2023-03-26T02:28:58.508Z,35.50
2023-03-26T02:31:31.221Z,35.17
2023-03-26T02:33:59.522Z,34.93
2023-03-26T02:36:29.842Z,35.08
2023-03-26T02:39:02.280Z,34.93
2023-03-26T02:41:35.548Z,34.62
2023-03-26T02:44:07.553Z,35.03
2023-03-26T02:46:55.871Z,35.31
2023-03-26T02:49:43.730Z,35.48
2023-03-26T02:52:17.164Z,35.52
2023-03-26T02:54:47.320Z,35.81
2023-03-26T02:57:20.488Z,35.58
2023-03-26T03:00:14.188Z,35.00
2023-03-26T03:03:04.356Z,34.51
2023-03-26T03:05:32.946Z,34.87
2023-03-26T03:08:29.338Z,35.02
2023-03-26T03:11:18.806Z,34.82
2023-03-26T03:13:48.098Z,34.26
2023-03-26T03:16:35.523Z,33.26
2023-03-26T03:19:07.321Z,33.71
2023-03-26T03:21:39.573Z,34.33
2023-03-26T03:24:09.634Z,34.41
2023-03-26T03:26:42.438Z,34.40
2023-03-26T03:29:24.043Z,34.63
2023-03-26T03:31:52.911Z,34.56
2023-03-26T03:34:42.532Z,33.90
2023-03-26T03:37:11.599Z,34.05
2023-03-26T03:39:45.241Z,33.80
2023-03-26T03:42:14.545Z,33.69
2023-03-26T03:44:44.429Z,34.08
2023-03-26T03:47:27.623Z,33.50
2023-03-26T03:49:57.234Z,32.55
2023-03-26T03:52:25.691Z,32.32
2023-03-26T03:54:56.547Z,32.49
2023-03-26T03:57:46.244Z,32.87
2023-03-26T04:00:20.225Z,32.26
2023-03-26T04:02:54.520Z,32.58
2023-03-26T04:05:23.665Z,32.41
2023-03-26T04:07:53.677Z,32.45
2023-03-26T04:10:24.674Z,31.90
2023-03-26T04:13:12.649Z,32.57
2023-03-26T04:15:56.692Z,32.84
2023-03-26T04:18:27.874Z,32.69
2023-03-26T04:21:02.482Z,31.86
2023-03-26T04:23:31.748Z,31.96
2023-03-26T04:26:10.556Z,32.49
2023-03-26T04:29:00.964Z,32.63
2023-03-26T04:34:32.060Z,41.78
2023-03-26T04:37:09.626Z,37.71
2023-03-26T04:39:44.887Z,37.79
2023-03-26T04:42:33.958Z,37.27
2023-03-26T04:45:22.894Z,36.44
2023-03-26T04:47:58.332Z,36.58
2023-03-26T04:50:28.292Z,35.41
2023-03-26T04:52:58.772Z,35.24
2023-03-26T04:55:59.831Z,35.16
2023-03-26T04:58:50.422Z,34.57
2023-03-26T05:01:18.585Z,34.45
2023-03-26T05:03:48.682Z,34.21
2023-03-26T05:06:17.863Z,34.01
2023-03-26T05:08:49.228Z,33.60
2023-03-26T05:11:37.519Z,32.73
2023-03-26T05:14:05.744Z,31.97
2023-03-26T05:16:36.759Z,30.92
2023-03-26T05:19:09.273Z,30.36
2023-03-26T05:21:39.183Z,29.26
2023-03-26T05:24:10.731Z,29.66
2023-03-26T05:26:39.084Z,30.03
2023-03-26T05:29:08.101Z,29.81
2023-03-26T05:31:45.820Z,30.21
2023-03-26T05:34:14.853Z,30.10
2023-03-26T05:36:44.032Z,30.25
2023-03-26T05:39:44.196Z,30.25
2023-03-26T05:42:31.652Z,30.13
2023-03-26T05:45:24.825Z,30.98
2023-03-26T05:47:56.008Z,31.31
2023-03-26T05:50:25.787Z,31.57
2023-03-26T05:52:59.685Z,31.18
2023-03-26T05:56:07.782Z,31.22
2023-03-26T05:58:56.217Z,31.94
2023-03-26T06:01:25.858Z,31.71
2023-03-26T06:04:13.877Z,31.38
2023-03-26T06:06:52.870Z,31.58
2023-03-26T06:09:23.236Z,31.13
2023-03-26T06:11:51.540Z,31.09
2023-03-26T06:14:25.520Z,31.06
2023-03-26T06:17:18.074Z,31.63
2023-03-26T06:20:13.581Z,31.64
2023-03-26T06:22:45.411Z,31.81
2023-03-26T06:25:30.862Z,31.31
2023-03-26T06:28:21.205Z,31.03
2023-03-26T06:31:09.303Z,30.74
2023-03-26T06:33:57.017Z,30.83
2023-03-26T06:36:26.634Z,30.71
2023-03-26T06:38:54.705Z,30.45
2023-03-26T06:41:23.649Z,29.54
2023-03-26T06:44:21.896Z,29.24
2023-03-26T06:46:55.500Z,28.95
2023-03-26T06:49:46.807Z,28.61
2023-03-26T06:52:37.768Z,28.13
2023-03-26T06:55:25.043Z,27.60
2023-03-26T06:58:06.126Z,27.44
2023-03-26T07:00:58.024Z,26.07
2023-03-26T07:03:46.423Z,24.58
2023-03-26T07:06:33.391Z,23.65
2023-03-26T07:09:20.027Z,23.65
2023-03-26T07:12:14.912Z,23.35
2023-03-26T07:15:21.928Z,22.93
2023-03-26T07:18:10.231Z,22.15
2023-03-26T07:20:40.627Z,21.77
2023-03-26T07:23:10.685Z,21.46
2023-03-26T07:25:54.638Z,21.12
2023-03-26T07:29:31.097Z,21.32
2023-03-26T07:32:18.501Z,20.72
2023-03-26T07:35:28.511Z,20.20
2023-03-26T07:39:28.943Z,19.51
2023-03-26T07:42:22.596Z,19.25
2023-03-26T07:45:25.619Z,19.33
2023-03-26T07:48:18.058Z,19.57
2023-03-26T07:51:07.941Z,18.63
2023-03-26T07:54:01.144Z,18.03
2023-03-26T07:56:58.663Z,17.93
2023-03-26T07:59:45.687Z,17.98
2023-03-26T08:02:38.808Z,17.23
2023-03-26T08:05:30.898Z,17.30
2023-03-26T08:08:19.808Z,17.52
2023-03-26T08:11:28.724Z,18.23
2023-03-26T08:14:12.058Z,20.27
2023-03-26T08:16:48.932Z,20.80
2023-03-26T08:19:40.876Z,21.49
2023-03-26T08:22:23.761Z,21.77
2023-03-26T08:25:12.048Z,21.21
2023-03-26T08:28:04.310Z,21.06
2023-03-26T08:30:34.549Z,20.25
2023-03-26T08:33:11.458Z,19.91
2023-03-26T08:35:42.570Z,20.38
2023-03-26T08:38:11.846Z,20.50
2023-03-26T08:41:06.874Z,20.66
2023-03-26T08:44:04.068Z,20.85
2023-03-26T08:46:50.837Z,21.26
2023-03-26T08:49:31.959Z,21.72
2023-03-26T08:52:29.662Z,21.49
2023-03-26T08:55:23.172Z,21.25
2023-03-26T08:58:10.178Z,21.83
2023-03-26T09:01:01.990Z,21.88
2023-03-26T09:03:58.470Z,22.01
2023-03-26T09:06:46.280Z,21.96
2023-03-26T09:09:18.922Z,21.39
2023-03-26T09:12:06.588Z,21.13
2023-03-26T09:14:35.483Z,21.26
2023-03-26T09:17:23.186Z,21.36
2023-03-26T09:20:03.958Z,21.34
2023-03-26T09:22:51.186Z,22.25
2023-03-26T09:25:54.815Z,22.10
2023-03-26T09:28:57.108Z,21.35
2023-03-26T09:32:02.538Z,20.90
2023-03-26T09:34:37.157Z,21.34
2023-03-26T09:37:33.813Z,21.42
2023-03-26T09:40:57.358Z,21.28
2023-03-26T09:43:33.703Z,20.74
2023-03-26T09:46:19.014Z,20.98
2023-03-26T09:49:09.137Z,21.20
2023-03-26T09:51:52.798Z,22.03
2023-03-26T09:54:37.043Z,22.31
2023-03-26T09:57:27.170Z,22.00
2023-03-26T10:00:14.771Z,22.39
2023-03-26T10:03:23.179Z,22.89
2023-03-26T10:06:31.093Z,22.08
2023-03-26T10:09:01.965Z,21.59
2023-03-26T10:11:38.293Z,21.15
2023-03-26T10:14:29.345Z,20.85
2023-03-26T10:17:42.362Z,20.90
2023-03-26T10:20:28.859Z,22.06
2023-03-26T10:23:23.628Z,22.56
2023-03-26T10:26:22.135Z,22.41
2023-03-26T10:28:53.273Z,22.46
2023-03-26T10:31:34.381Z,23.06
2023-03-26T10:34:03.439Z,23.32
2023-03-26T10:36:35.262Z,23.44
2023-03-26T10:39:43.459Z,23.28
2023-03-26T10:42:11.759Z,23.58
2023-03-26T10:45:13.710Z,23.46
2023-03-26T10:47:59.003Z,23.49
2023-03-26T10:50:56.174Z,23.45
2023-03-26T10:53:27.312Z,24.19
2023-03-26T10:55:56.558Z,24.01
2023-03-26T10:58:48.769Z,24.37
2023-03-26T11:01:43.215Z,24.23
2023-03-26T11:04:16.404Z,23.67
2023-03-26T11:07:05.037Z,24.28
2023-03-26T11:09:53.264Z,24.68
2023-03-26T11:12:55.545Z,24.19
2023-03-26T11:16:03.325Z,24.11
2023-03-26T11:18:46.992Z,24.29
2023-03-26T11:21:24.278Z,24.44
2023-03-26T11:24:34.429Z,24.27
2023-03-26T11:27:15.277Z,24.47
2023-03-26T11:30:02.798Z,24.25
2023-03-26T11:32:40.062Z,24.16
2023-03-26T11:35:40.640Z,24.15
2023-03-26T11:38:37.602Z,24.72
2023-03-26T11:41:13.114Z,23.78
2023-03-26T11:43:59.331Z,24.41
2023-03-26T11:46:33.241Z,24.40
2023-03-26T11:49:03.765Z,23.64
2023-03-26T11:51:36.222Z,23.77
2023-03-26T11:54:06.047Z,23.19
2023-03-26T11:57:04.504Z,22.96
2023-03-26T12:00:18.121Z,23.06
2023-03-26T12:02:57.767Z,23.20
2023-03-26T12:05:31.609Z,22.84
2023-03-26T12:08:03.441Z,22.75
2023-03-26T12:10:38.921Z,22.94
2023-03-26T12:13:29.213Z,22.31
2023-03-26T12:16:27.619Z,22.53
2023-03-26T12:19:06.370Z,23.12
2023-03-26T12:22:05.162Z,23.47
2023-03-26T12:24:35.241Z,23.47
2023-03-26T12:27:25.589Z,22.98
2023-03-26T12:30:19.928Z,23.35
2023-03-26T12:33:04.278Z,23.13
2023-03-26T12:35:34.867Z,23.18
2023-03-26T12:38:22.733Z,22.28
2023-03-26T12:41:08.837Z,22.61
2023-03-26T12:44:54.711Z,22.63
2023-03-26T12:47:57.131Z,22.59
2023-03-26T12:49:38.017Z,22.12
2023-03-26T12:52:38.237Z,22.48
2023-03-26T12:55:15.920Z,22.47
2023-03-26T12:58:13.801Z,22.32
2023-03-26T13:01:15.849Z,22.09
2023-03-26T13:03:44.292Z,22.19
2023-03-26T13:06:25.057Z,22.07
2023-03-26T13:09:05.059Z,21.85
2023-03-26T13:11:45.777Z,21.94
2023-03-26T13:14:35.516Z,22.24
2023-03-26T13:17:18.004Z,22.08
2023-03-26T13:20:06.857Z,22.01
2023-03-26T13:23:23.727Z,21.89
2023-03-26T13:26:10.592Z,22.13
2023-03-26T13:29:31.057Z,21.77
2023-03-26T13:32:06.026Z,21.64
2023-03-26T13:35:02.262Z,22.49
2023-03-26T13:37:54.126Z,22.50
2023-03-26T13:40:49.936Z,21.92
2023-03-26T13:43:38.187Z,21.81
2023-03-26T13:46:25.067Z,22.29
2023-03-26T13:48:59.428Z,22.07
2023-03-26T13:51:33.076Z,21.95
2023-03-26T13:54:17.744Z,22.31
2023-03-26T13:56:49.393Z,21.47
2023-03-26T13:59:27.171Z,21.20
2023-03-26T14:02:02.297Z,21.25
2023-03-26T14:04:34.122Z,21.80
2023-03-26T14:07:06.487Z,21.74
2023-03-26T14:10:03.236Z,22.42
2023-03-26T14:12:44.687Z,23.05
2023-03-26T14:15:27.140Z,23.72
2023-03-26T14:18:00.492Z,23.64
2023-03-26T14:20:50.301Z,24.01
2023-03-26T14:23:28.806Z,24.58
2023-03-26T14:26:16.018Z,24.80
2023-03-26T14:29:13.677Z,25.53
2023-03-26T14:31:46.461Z,25.67
2023-03-26T14:34:33.326Z,25.65
2023-03-26T14:37:44.987Z,25.47
2023-03-26T14:40:26.107Z,25.50
2023-03-26T14:43:06.110Z,25.94
2023-03-26T14:46:12.849Z,25.94
2023-03-26T14:48:59.164Z,26.34
2023-03-26T14:51:59.629Z,27.57
2023-03-26T14:54:33.526Z,27.85
2023-03-26T14:57:39.353Z,27.97
2023-03-26T15:00:20.207Z,27.83
2023-03-26T15:03:09.837Z,28.04
2023-03-26T15:05:41.711Z,27.75
2023-03-26T15:08:24.278Z,27.39
2023-03-26T15:11:17.442Z,27.96
2023-03-26T15:14:11.517Z,28.89
2023-03-26T15:17:10.870Z,29.59
2023-03-26T15:20:17.123Z,30.18
2023-03-26T15:23:27.229Z,29.98
2023-03-26T15:26:09.889Z,29.67
2023-03-26T15:28:41.117Z,29.84
2023-03-26T15:31:24.637Z,29.90
2023-03-26T15:34:20.218Z,30.01
2023-03-26T15:37:12.402Z,30.20
2023-03-26T15:39:59.165Z,30.46
2023-03-26T15:42:37.896Z,30.89
2023-03-26T15:45:26.202Z,30.77
2023-03-26T15:48:01.526Z,30.59
2023-03-26T15:51:02.632Z,30.38
2023-03-26T15:53:35.525Z,30.56
2023-03-26T15:56:25.979Z,30.61
2023-03-26T15:59:16.568Z,30.97
2023-03-26T16:01:47.573Z,30.15
2023-03-26T16:04:37.769Z,30.75
2023-03-26T16:07:47.957Z,31.36
2023-03-26T16:10:44.779Z,32.33
2023-03-26T16:13:36.827Z,33.30
2023-03-26T16:16:06.958Z,32.90
2023-03-26T16:18:42.085Z,33.09
2023-03-26T16:21:32.790Z,33.09
2023-03-26T16:24:07.482Z,33.44
2023-03-26T16:26:45.600Z,33.59
2023-03-26T16:29:14.646Z,34.10
2023-03-26T16:32:11.040Z,33.91
2023-03-26T16:34:53.275Z,33.41
2023-03-26T16:37:50.688Z,33.98
2023-03-26T16:40:22.684Z,33.94
2023-03-26T16:43:05.959Z,33.55
2023-03-26T16:45:44.072Z,33.31
2023-03-26T16:51:45.973Z,42.67
2023-03-26T16:54:20.093Z,39.79
2023-03-26T16:57:17.244Z,39.32
2023-03-26T17:00:06.363Z,38.98
2023-03-26T17:02:50.310Z,38.89
2023-03-26T17:05:35.942Z,38.82
2023-03-26T17:08:12.358Z,38.88
2023-03-26T17:10:53.916Z,38.93
2023-03-26T17:13:37.031Z,38.22
2023-03-26T17:16:21.144Z,38.42
2023-03-26T17:19:18.502Z,38.15
2023-03-26T17:22:14.849Z,38.06
2023-03-26T17:24:48.974Z,38.23
2023-03-26T17:27:51.962Z,37.58
2023-03-26T17:30:42.432Z,37.81
2023-03-26T17:33:29.602Z,37.87
2023-03-26T17:36:13.089Z,37.86
2023-03-26T17:38:46.729Z,38.17
2023-03-26T17:41:35.569Z,38.19
2023-03-26T17:44:23.203Z,38.18
2023-03-26T17:46:51.371Z,38.86
2023-03-26T17:49:21.497Z,38.58
2023-03-26T17:52:04.316Z,38.63
2023-03-26T17:54:36.485Z,38.19
2023-03-26T17:57:11.140Z,37.70
2023-03-26T17:59:40.997Z,37.40
2023-03-26T18:02:16.471Z,37.67
2023-03-26T18:04:47.871Z,37.47
2023-03-26T18:08:02.099Z,37.41
2023-03-26T18:10:56.883Z,37.50
2023-03-26T18:13:37.349Z,37.64
2023-03-26T18:16:17.375Z,37.65
2023-03-26T18:18:57.076Z,37.53
2023-03-26T18:21:46.450Z,37.83
2023-03-26T18:24:19.528Z,37.97
2023-03-26T18:27:00.225Z,37.99
2023-03-26T18:29:33.122Z,38.01
2023-03-26T18:32:10.450Z,37.97
2023-03-26T18:34:49.530Z,38.06
2023-03-26T18:37:23.514Z,37.81
2023-03-26T18:40:21.634Z,37.57
2023-03-26T18:42:49.774Z,37.13
2023-03-26T18:45:37.305Z,36.97
2023-03-26T18:48:10.652Z,36.84
2023-03-26T18:50:41.103Z,37.70
2023-03-26T18:53:21.119Z,38.10
2023-03-26T18:55:50.747Z,37.80
2023-03-26T18:58:30.469Z,38.03
2023-03-26T19:01:19.982Z,38.11
2023-03-26T19:03:53.100Z,37.90
2023-03-26T19:06:23.466Z,37.82
2023-03-26T19:08:52.444Z,37.78
2023-03-26T19:11:22.508Z,37.47
2023-03-26T19:14:03.636Z,37.77
2023-03-26T19:16:33.951Z,37.99
2023-03-26T19:19:05.504Z,38.15
2023-03-26T19:21:34.720Z,38.22
2023-03-26T19:24:16.423Z,38.67
2023-03-26T19:26:44.622Z,38.56
2023-03-26T19:29:29.971Z,38.71
2023-03-26T19:32:05.658Z,38.76
2023-03-26T19:34:40.271Z,38.76
2023-03-26T19:37:18.277Z,38.61
2023-03-26T19:39:49.255Z,38.37
2023-03-26T19:42:42.889Z,38.64
2023-03-26T19:45:21.785Z,38.81
2023-03-26T19:48:00.533Z,38.89
2023-03-26T19:50:43.649Z,38.86
2023-03-26T19:53:18.680Z,38.78
2023-03-26T19:55:54.320Z,38.85
2023-03-26T19:58:22.317Z,38.54
2023-03-26T20:00:51.839Z,38.38
2023-03-26T20:03:43.042Z,38.27
2023-03-26T20:06:16.649Z,38.25
2023-03-26T20:08:46.722Z,37.70
2023-03-26T20:11:17.789Z,37.87
2023-03-26T20:13:46.597Z,37.97
2023-03-26T20:16:24.658Z,37.81
2023-03-26T20:18:53.822Z,38.13
2023-03-26T20:21:29.552Z,37.95
2023-03-26T20:23:57.587Z,37.96
2023-03-26T20:26:25.819Z,37.57
2023-03-26T20:28:54.733Z,37.15
2023-03-26T20:31:25.352Z,37.15
2023-03-26T20:33:54.390Z,37.22
2023-03-26T20:36:33.368Z,37.06
2023-03-26T20:39:06.162Z,37.25
2023-03-26T20:41:41.660Z,37.67
2023-03-26T20:44:15.314Z,37.96
2023-03-26T20:46:44.030Z,38.26
2023-03-26T20:49:12.228Z,37.85
2023-03-26T20:51:41.909Z,38.11
2023-03-26T20:54:30.374Z,37.81
2023-03-26T20:56:58.437Z,37.48
2023-03-26T20:59:32.835Z,37.67
2023-03-26T21:02:01.293Z,37.68
2023-03-26T21:04:29.676Z,37.47
2023-03-26T21:07:07.129Z,37.66
2023-03-26T21:09:42.317Z,37.62
2023-03-26T21:12:20.641Z,37.76
2023-03-26T21:14:51.521Z,37.71
2023-03-26T21:17:28.041Z,37.78
2023-03-26T21:19:56.404Z,37.57
2023-03-26T21:22:39.659Z,37.68
2023-03-26T21:25:17.534Z,37.53
2023-03-26T21:28:13.652Z,37.24
2023-03-26T21:30:43.985Z,37.07
2023-03-26T21:33:13.867Z,36.96
2023-03-26T21:35:42.540Z,37.06
2023-03-26T21:38:11.370Z,37.05
2023-03-26T21:40:46.976Z,36.76
2023-03-26T21:43:22.376Z,36.64
2023-03-26T21:45:53.593Z,36.46
2023-03-26T21:48:23.590Z,36.23
2023-03-26T21:50:52.320Z,36.02
2023-03-26T21:53:22.378Z,35.93
2023-03-26T21:55:50.809Z,35.99
2023-03-26T21:58:27.140Z,36.07
2023-03-26T22:01:18.824Z,36.07
2023-03-26T22:03:53.231Z,35.84
2023-03-26T22:06:31.318Z,35.72
2023-03-26T22:09:00.424Z,35.92
2023-03-26T22:11:28.592Z,35.73
2023-03-26T22:14:01.649Z,35.61
2023-03-26T22:16:30.766Z,35.71
2023-03-26T22:18:58.965Z,35.67
2023-03-26T22:21:27.831Z,35.46
2023-03-26T22:23:55.921Z,35.35
2023-03-26T22:26:27.562Z,35.27
2023-03-26T22:28:57.081Z,35.15
2023-03-26T22:31:26.590Z,35.01
2023-03-26T22:33:55.154Z,35.40
2023-03-26T22:36:25.386Z,35.59
2023-03-26T22:38:54.468Z,35.79
2023-03-26T22:41:23.959Z,35.96
2023-03-26T22:43:55.356Z,36.04
2023-03-26T22:46:25.193Z,36.64
2023-03-26T22:48:54.791Z,36.64
2023-03-26T22:51:28.262Z,37.15
2023-03-26T22:53:57.493Z,37.83
2023-03-26T22:56:25.949Z,37.54
2023-03-26T22:58:54.726Z,37.27
2023-03-26T23:01:24.020Z,37.03
2023-03-26T23:03:52.173Z,37.14
2023-03-26T23:06:21.399Z,37.23
2023-03-26T23:08:50.182Z,36.92
2023-03-26T23:11:19.399Z,37.05
2023-03-26T23:13:48.042Z,37.15
2023-03-26T23:16:16.623Z,37.01
2023-03-26T23:18:46.693Z,36.90
2023-03-26T23:21:16.316Z,36.81
2023-03-26T23:23:44.483Z,36.93
2023-03-26T23:26:14.909Z,37.00
2023-03-26T23:28:43.368Z,37.09
2023-03-26T23:31:12.428Z,37.23
2023-03-26T23:33:46.035Z,37.30
2023-03-26T23:36:17.685Z,37.13
2023-03-26T23:38:47.733Z,37.39
2023-03-26T23:41:21.725Z,37.27
2023-03-26T23:43:56.677Z,37.23
2023-03-26T23:46:30.984Z,37.16
2023-03-26T23:49:02.486Z,37.11
2023-03-26T23:51:32.775Z,37.32
2023-03-26T23:54:01.657Z,37.49
2023-03-26T23:56:32.306Z,37.35
2023-03-26T23:59:00.883Z,37.45
